Ashtabula, Ohio
Current Conditions -  °F | °C
As of 5:53 PM on Thursday 18 Dec 2014 (Local Time) from KHZY Reporting Station
Overcast Overcast  
Wind Chill: -4°   Ceiling: 1600
Heat Index: -1°   Visibility: 10mi
Dew Point: -3°   Wind: 5mph
Humidity: 88%   Direction: 240°WSW
Pressure: 30.15"   Gusts: NA
Location:  41.89°N, 80.79°W
Report Text: KHZY 182253Z AUTO 24004KT 10SM OVC016 M01/M03 A3015 RMK AO2 SLP219 T10111028
Loading
Personal Weather Stations






























Interactive Weather Map New forecast layout! Learn more

10-Day Weather Forecast

Advertisements
Track Severe Weather on mobile